HEBL 230700Z 00000KT CAVOK 30/11 Q1010 NOSIG
From batch tds/metars/production/2022/9/23/h07_m55_metars.cache.csv.gz
Observed at (9 days ago)
Identifier HEBL
talk